Time;durP1;ratioP1;P1;durP2;ratioP2;P2;SDS_P1;SDS_P2;PMS_P1;PMS_P2;Temp;Humidity;BMP_temperature;BMP_pressure;BME280_temperature;BME280_humidity;BME280_pressure;Samples;Min_cycle;Max_cycle;Signal;HPM_P1;HPM_P2
2022/04/19 00:00:42;;;;;;;3.40;2.60;;;9.70;1.00;;;;;;5098801;28;20496;-58
2022/04/19 00:03:09;;;;;;;3.43;2.97;;;9.70;1.00;;;;;;5107952;28;20247;-57
2022/04/19 00:05:36;;;;;;;3.90;2.77;;;9.80;1.00;;;;;;5106280;28;20539;-58
2022/04/19 00:08:02;;;;;;;3.20;2.90;;;9.80;1.00;;;;;;5093878;28;20502;-58
2022/04/19 00:10:29;;;;;;;5.90;3.03;;;9.80;1.00;;;;;;5103139;28;20532;-57
2022/04/19 00:13:03;;;;;;;3.50;3.20;;;9.80;1.00;;;;;;5103589;28;20463;-57
2022/04/19 00:15:29;;;;;;;2.70;2.50;;;9.80;1.00;;;;;;5104267;28;20481;-58
2022/04/19 00:18:05;;;;;;;5.20;2.60;;;9.80;1.00;;;;;;5105447;28;20451;-57
2022/04/19 00:20:33;;;;;;;3.80;3.40;;;9.80;1.00;;;;;;5106404;28;20462;-56
2022/04/19 00:22:59;;;;;;;4.57;2.83;;;;;;;;;;5100699;28;20446;-57
2022/04/19 00:25:25;;;;;;;5.47;3.40;;;;;;;;;;5106254;28;21094;-57
2022/04/19 00:27:50;;;;;;;5.30;3.20;;;9.70;1.00;;;;;;5096022;28;20521;-57
2022/04/19 00:30:16;;;;;;;3.83;3.20;;;9.60;1.00;;;;;;5103967;28;22104;-58
2022/04/19 00:32:42;;;;;;;3.80;3.40;;;9.50;1.00;;;;;;5100991;28;20202;-59
2022/04/19 00:35:09;;;;;;;3.47;3.17;;;9.80;1.00;;;;;;5100733;28;20469;-58
2022/04/19 00:37:36;;;;;;;4.47;3.93;;;9.40;1.00;;;;;;5104041;28;20824;-59
2022/04/19 00:40:03;;;;;;;4.80;3.53;;;9.40;1.00;;;;;;5104956;28;20444;-57
2022/04/19 00:42:30;;;;;;;4.80;3.50;;;9.40;1.00;;;;;;5098289;28;20974;-58
2022/04/19 00:44:57;;;;;;;5.13;3.23;;;9.30;1.00;;;;;;5103439;28;20550;-58
2022/04/19 00:47:23;;;;;;;6.30;3.80;;;9.30;1.00;;;;;;5098065;28;20447;-58
2022/04/19 00:49:49;;;;;;;4.70;4.30;;;9.30;1.00;;;;;;5102024;28;20948;-58
2022/04/19 00:52:15;;;;;;;4.40;4.00;;;9.30;1.00;;;;;;5098205;28;20218;-57
2022/04/19 00:54:41;;;;;;;6.60;4.90;;;9.50;1.00;;;;;;5104179;28;20542;-58
2022/04/19 00:57:07;;;;;;;6.10;4.90;;;9.60;1.00;;;;;;5106776;28;20471;-56
2022/04/19 00:59:33;;;;;;;5.80;5.00;;;9.60;1.00;;;;;;5107781;28;20478;-57
2022/04/19 01:02:00;;;;;;;7.03;5.33;;;9.70;1.00;;;;;;5103238;28;20444;-58
2022/04/19 01:04:25;;;;;;;6.47;5.17;;;9.80;1.00;;;;;;5098563;28;20487;-58
2022/04/19 01:06:52;;;;;;;8.37;5.80;;;9.80;1.00;;;;;;5103272;28;20975;-58
2022/04/19 01:09:18;;;;;;;7.27;5.33;;;9.70;1.00;;;;;;5097326;28;20232;-58
2022/04/19 01:14:28;;;;;;;10.07;6.43;;;9.50;1.00;;;;;;5105817;28;20935;-57
2022/04/19 01:16:55;;;;;;;7.83;5.43;;;9.40;1.00;;;;;;5102839;28;20477;-56
2022/04/19 01:19:21;;;;;;;8.27;6.20;;;9.30;1.00;;;;;;5109375;28;20534;-58
2022/04/19 01:21:48;;;;;;;7.70;5.23;;;9.20;1.00;;;;;;5108100;28;20435;-58
2022/04/19 01:24:18;;;;;;;6.63;5.67;;;9.20;1.00;;;;;;5105144;28;20439;-58
2022/04/19 01:26:44;;;;;;;6.80;5.47;;;9.30;1.00;;;;;;5105703;28;20574;-58
2022/04/19 01:29:11;;;;;;;6.80;5.40;;;9.30;1.00;;;;;;5102897;28;20452;-56
2022/04/19 01:31:38;;;;;;;6.53;5.37;;;9.40;1.00;;;;;;5090753;28;20570;-57
2022/04/19 01:34:04;;;;;;;5.77;5.20;;;9.40;1.00;;;;;;5096559;28;20470;-57
2022/04/19 01:36:30;;;;;;;6.53;5.60;;;9.50;1.00;;;;;;5099854;28;20449;-57
2022/04/19 01:38:55;;;;;;;7.90;7.10;;;9.60;1.00;;;;;;5100294;28;20191;-57
2022/04/19 01:41:21;;;;;;;7.10;6.03;;;9.50;1.00;;;;;;5089970;28;20191;-57
2022/04/19 01:43:46;;;;;;;6.77;5.33;;;9.50;1.00;;;;;;5092432;28;20244;-56
2022/04/19 01:46:14;;;;;;;5.83;5.17;;;9.60;1.00;;;;;;5102795;28;20193;-59
2022/04/19 01:48:40;;;;;;;7.33;5.73;;;;;;;;;;5103020;28;20288;-58
2022/04/19 01:51:08;;;;;;;6.60;5.90;;;;;;;;;;5108213;28;20444;-57
2022/04/19 01:53:33;;;;;;;7.13;5.80;;;9.60;1.00;;;;;;5098076;28;20448;-57
2022/04/19 01:55:59;;;;;;;10.60;5.57;;;9.60;1.00;;;;;;5093838;28;20495;-58
2022/04/19 01:58:24;;;;;;;6.90;5.33;;;9.60;1.00;;;;;;5096202;28;20184;-57
2022/04/19 02:00:50;;;;;;;7.13;3.60;;;9.50;1.00;;;;;;5107108;28;20205;-57
2022/04/19 02:03:17;;;;;;;5.03;3.63;;;;;;;;;;5091149;28;20269;-56
2022/04/19 02:05:43;;;;;;;4.40;3.67;;;9.50;1.00;;;;;;5107959;28;20315;-57
2022/04/19 02:08:08;;;;;;;4.80;3.33;;;9.50;1.00;;;;;;5105137;28;20444;-58
2022/04/19 02:10:34;;;;;;;4.90;3.73;;;9.50;1.00;;;;;;5106797;28;20226;-57
2022/04/19 02:13:00;;;;;;;3.90;3.50;;;;;;;;;;5101612;28;20201;-56
2022/04/19 02:15:25;;;;;;;4.07;3.50;;;;;;;;;;5091817;28;21918;-56
2022/04/19 02:17:51;;;;;;;5.73;4.30;;;9.50;1.00;;;;;;5095753;28;20925;-56
2022/04/19 02:20:18;;;;;;;6.63;5.87;;;9.60;1.00;;;;;;5103303;28;20462;-58
2022/04/19 02:22:45;;;;;;;6.20;5.13;;;9.70;1.00;;;;;;5097240;28;20274;-58
2022/04/19 02:25:13;;;;;;;7.00;5.80;;;9.70;1.00;;;;;;5090032;28;20437;-58
2022/04/19 02:27:40;;;;;;;5.47;4.60;;;9.60;1.00;;;;;;5091185;28;20497;-57
2022/04/19 02:30:13;;;;;;;5.90;5.30;;;9.50;1.00;;;;;;5091807;28;20790;-58
2022/04/19 02:32:40;;;;;;;7.10;5.83;;;9.40;1.00;;;;;;5102299;28;20548;-57
2022/04/19 02:35:06;;;;;;;5.43;4.67;;;9.40;1.00;;;;;;5100791;28;20528;-58
2022/04/19 02:37:32;;;;;;;7.03;5.30;;;9.30;1.00;;;;;;5104797;28;22533;-57
2022/04/19 02:39:58;;;;;;;5.50;5.00;;;9.40;1.00;;;;;;5107858;28;20269;-58
2022/04/19 02:42:23;;;;;;;6.13;5.00;;;9.30;1.00;;;;;;5107002;28;20577;-57
2022/04/19 02:44:50;;;;;;;5.47;4.90;;;9.30;1.00;;;;;;5102682;28;20198;-57
2022/04/19 02:47:17;;;;;;;6.33;5.23;;;9.30;1.00;;;;;;5092221;28;20211;-57
2022/04/19 02:49:45;;;;;;;5.87;5.00;;;9.30;1.00;;;;;;5090871;28;20551;-57
2022/04/19 02:52:11;;;;;;;5.33;4.70;;;9.30;1.00;;;;;;5104943;28;20470;-58
2022/04/19 02:54:37;;;;;;;6.87;5.10;;;;;;;;;;5094565;28;20468;-58
2022/04/19 02:57:04;;;;;;;5.80;5.10;;;9.20;1.00;;;;;;5092911;28;20458;-57
2022/04/19 02:59:29;;;;;;;4.50;4.10;;;9.20;1.00;;;;;;5098710;28;20463;-57
2022/04/19 03:01:55;;;;;;;6.20;4.77;;;9.00;1.00;;;;;;5092914;28;20432;-57
2022/04/19 03:04:21;;;;;;;6.30;4.93;;;8.90;1.00;;;;;;5095425;28;20225;-58
2022/04/19 03:06:47;;;;;;;6.33;4.03;;;9.00;1.00;;;;;;5104322;28;20545;-56
2022/04/19 03:09:13;;;;;;;8.40;4.43;;;8.90;1.00;;;;;;5101555;28;20667;-57
2022/04/19 03:11:38;;;;;;;5.23;4.73;;;8.80;1.00;;;;;;5103270;28;20440;-58
2022/04/19 03:14:06;;;;;;;5.63;4.90;;;8.80;1.00;;;;;;5100616;28;20186;-57
2022/04/19 03:16:32;;;;;;;5.60;4.90;;;8.90;1.00;;;;;;5099400;28;20265;-57
2022/04/19 03:18:58;;;;;;;5.23;4.33;;;8.80;1.00;;;;;;5105258;28;21230;-57
2022/04/19 03:21:23;;;;;;;5.60;4.90;;;8.90;1.00;;;;;;5106893;28;20750;-58
2022/04/19 03:29:19;;;;;;;6.30;5.20;;;9.00;1.00;;;;;;5099172;28;20474;-56
2022/04/19 03:31:45;;;;;;;6.13;5.03;;;;;;;;;;5093167;28;20461;-58
2022/04/19 03:34:11;;;;;;;6.70;4.90;;;9.10;1.00;;;;;;5096754;28;20448;-58
2022/04/19 03:36:36;;;;;;;5.80;5.20;;;9.00;1.00;;;;;;5102594;28;20440;-56
2022/04/19 03:39:02;;;;;;;7.60;5.50;;;8.90;1.00;;;;;;5104137;28;20194;-57
2022/04/19 03:41:28;;;;;;;4.80;4.40;;;8.80;1.00;;;;;;5104499;28;20201;-56
2022/04/19 03:43:54;;;;;;;6.37;5.43;;;8.70;1.00;;;;;;5104166;28;20877;-58
2022/04/19 03:46:19;;;;;;;10.83;5.17;;;8.80;1.00;;;;;;5107785;28;20205;-57
2022/04/19 03:48:45;;;;;;;5.67;5.17;;;8.70;1.00;;;;;;5109790;28;20185;-57
2022/04/19 03:51:11;;;;;;;5.10;4.60;;;8.70;1.00;;;;;;5104283;28;20200;-57
2022/04/19 03:53:36;;;;;;;5.03;4.20;;;8.70;1.00;;;;;;5098372;28;20579;-58
2022/04/19 03:56:05;;;;;;;5.87;4.60;;;;;;;;;;5099959;28;20218;-58
2022/04/19 03:58:32;;;;;;;6.70;5.90;;;8.80;1.00;;;;;;5099479;28;20555;-56
2022/04/19 04:00:59;;;;;;;5.40;4.90;;;8.80;1.00;;;;;;5104058;28;20510;-58
2022/04/19 04:03:24;;;;;;;5.40;4.47;;;8.60;1.00;;;;;;5107703;28;20548;-59
2022/04/19 04:05:50;;;;;;;5.60;4.83;;;8.70;1.00;;;;;;5098232;28;20889;-59
2022/04/19 04:08:16;;;;;;;4.73;4.33;;;8.70;1.00;;;;;;5107066;28;21153;-60
2022/04/19 04:10:42;;;;;;;7.00;4.67;;;8.70;1.00;;;;;;5105316;28;20212;-59
2022/04/19 04:13:07;;;;;;;5.53;5.00;;;8.50;1.00;;;;;;5109722;28;20194;-58
2022/04/19 04:15:33;;;;;;;5.97;4.67;;;;;;;;;;5109487;28;20623;-61
2022/04/19 04:17:59;;;;;;;5.10;4.57;;;8.50;1.00;;;;;;5107062;28;20265;-57
2022/04/19 04:20:25;;;;;;;5.73;4.73;;;8.50;1.00;;;;;;5101461;28;20531;-57
2022/04/19 04:22:50;;;;;;;5.07;4.23;;;8.60;1.00;;;;;;5100532;28;20240;-58
2022/04/19 04:25:16;;;;;;;6.10;4.93;;;8.70;1.00;;;;;;5107817;28;20768;-57
2022/04/19 04:27:41;;;;;;;5.00;4.50;;;8.70;1.00;;;;;;5103906;28;20190;-57
2022/04/19 04:30:07;;;;;;;6.33;4.83;;;8.50;1.00;;;;;;5107566;28;20193;-57
2022/04/19 04:32:33;;;;;;;5.67;4.50;;;8.40;1.00;;;;;;5098719;28;20182;-56
2022/04/19 04:34:59;;;;;;;6.07;5.47;;;8.50;1.00;;;;;;5095856;28;20464;-57
2022/04/19 04:37:24;;;;;;;5.13;4.63;;;8.30;1.00;;;;;;5098193;28;20182;-57
2022/04/19 04:39:50;;;;;;;6.03;4.50;;;8.30;1.00;;;;;;5105240;28;20182;-57
2022/04/19 04:42:16;;;;;;;4.70;4.20;;;8.30;1.00;;;;;;5104127;28;20644;-57
2022/04/19 04:44:41;;;;;;;6.27;5.30;;;8.20;1.00;;;;;;5097111;28;20210;-56
2022/04/19 04:49:51;;;;;;;5.10;4.53;;;8.00;1.00;;;;;;5096845;28;20189;-57
2022/04/19 04:52:18;;;;;;;6.20;5.30;;;8.00;1.00;;;;;;5099471;28;20435;-57
2022/04/19 04:54:44;;;;;;;5.30;4.50;;;;;;;;;;5103591;28;20202;-57
2022/04/19 04:57:10;;;;;;;4.17;3.77;;;7.90;1.00;;;;;;5096516;28;20446;-57
2022/04/19 04:59:36;;;;;;;5.87;4.90;;;8.00;1.00;;;;;;5096520;28;20982;-57
2022/04/19 05:02:03;;;;;;;5.53;5.03;;;8.00;1.00;;;;;;5103675;28;20785;-57
2022/04/19 05:04:33;;;;;;;5.17;4.67;;;8.10;1.00;;;;;;5103956;28;20574;-57
2022/04/19 05:06:59;;;;;;;5.53;4.50;;;8.10;1.00;;;;;;5101417;28;20798;-58
2022/04/19 05:09:25;;;;;;;5.10;4.70;;;;;;;;;;5108376;28;20443;-57
2022/04/19 05:11:52;;;;;;;5.70;5.10;;;8.40;1.00;;;;;;5105726;28;20447;-56
2022/04/19 05:14:18;;;;;;;5.83;4.60;;;8.40;1.00;;;;;;5104150;28;20439;-56
2022/04/19 05:16:44;;;;;;;5.43;4.93;;;;;;;;;;5099780;28;20437;-56
2022/04/19 05:19:09;;;;;;;8.10;4.80;;;8.70;1.00;;;;;;5106611;28;20246;-56
2022/04/19 05:21:38;;;;;;;7.00;5.13;;;8.70;1.00;;;;;;5105951;28;20483;-56
2022/04/19 05:24:05;;;;;;;4.87;4.43;;;8.90;1.00;;;;;;5103038;28;20189;-56
2022/04/19 05:26:31;;;;;;;6.10;4.83;;;8.90;1.00;;;;;;5109030;28;20490;-57
2022/04/19 05:28:56;;;;;;;7.70;5.43;;;9.00;1.00;;;;;;5095437;28;20472;-56
2022/04/19 05:31:22;;;;;;;5.30;4.80;;;9.00;1.00;;;;;;5099082;28;20732;-57
2022/04/19 05:33:48;;;;;;;4.70;4.30;;;9.00;1.00;;;;;;5098256;28;20198;-57
2022/04/19 05:36:14;;;;;;;6.20;4.57;;;;;;;;;;5102108;28;20206;-57
2022/04/19 05:38:39;;;;;;;6.97;4.20;;;9.00;1.00;;;;;;5110194;28;20182;-58
2022/04/19 05:41:05;;;;;;;4.93;4.50;;;9.00;1.00;;;;;;5098751;28;20466;-58
2022/04/19 05:43:31;;;;;;;4.83;4.43;;;8.80;1.00;;;;;;5103092;28;20339;-56
2022/04/19 05:45:59;;;;;;;5.33;4.40;;;8.70;1.00;;;;;;5098662;28;20573;-56
2022/04/19 05:48:25;;;;;;;5.50;4.43;;;8.80;1.00;;;;;;5099044;28;20197;-58
2022/04/19 05:50:52;;;;;;;6.33;4.50;;;8.80;1.00;;;;;;5104883;28;20460;-57
2022/04/19 05:53:18;;;;;;;7.27;4.47;;;8.80;1.00;;;;;;5095191;28;20810;-57
2022/04/19 05:55:43;;;;;;;4.80;4.23;;;8.70;1.00;;;;;;5109091;28;20483;-57
2022/04/19 05:58:09;;;;;;;7.13;5.10;;;8.80;1.00;;;;;;5108797;28;20458;-57
2022/04/19 06:00:35;;;;;;;7.03;4.97;;;8.80;1.00;;;;;;5100595;28;20183;-57
2022/04/19 06:05:45;;;;;;;5.93;4.90;;;9.10;1.00;;;;;;5089256;28;20229;-57
2022/04/19 06:08:10;;;;;;;7.43;4.53;;;9.20;1.00;;;;;;5102443;28;21066;-56
2022/04/19 06:10:36;;;;;;;4.90;4.40;;;9.30;1.00;;;;;;5098169;28;20202;-57
2022/04/19 06:13:01;;;;;;;6.33;4.37;;;9.40;1.00;;;;;;5107105;28;20198;-57
2022/04/19 06:15:27;;;;;;;6.70;5.13;;;9.40;1.00;;;;;;5094849;28;20214;-57
2022/04/19 06:17:53;;;;;;;5.47;4.67;;;9.60;1.00;;;;;;5098733;28;20210;-57
2022/04/19 06:20:18;;;;;;;6.57;4.97;;;9.60;1.00;;;;;;5106766;28;20185;-58
2022/04/19 06:22:44;;;;;;;13.93;5.73;;;9.60;1.00;;;;;;5106668;28;20811;-57
2022/04/19 06:25:10;;;;;;;11.80;6.70;;;;;;;;;;5097987;28;20709;-57
2022/04/19 06:27:36;;;;;;;10.87;5.77;;;9.50;1.00;;;;;;5107072;28;20214;-58
2022/04/19 06:30:03;;;;;;;7.43;4.93;;;9.80;1.00;;;;;;5108998;28;20474;-57
2022/04/19 06:32:28;;;;;;;7.80;5.57;;;9.80;1.00;;;;;;5104018;28;20620;-57
2022/04/19 06:34:54;;;;;;;8.17;5.60;;;9.80;1.00;;;;;;5105771;28;20517;-56
2022/04/19 06:37:22;;;;;;;6.87;5.00;;;9.60;1.00;;;;;;5102283;28;20178;-58
2022/04/19 06:39:47;;;;;;;7.67;5.30;;;10.00;1.00;;;;;;5109307;28;20272;-58
2022/04/19 06:42:13;;;;;;;7.77;5.27;;;10.10;1.00;;;;;;5100498;28;20535;-57
2022/04/19 06:44:39;;;;;;;5.17;4.67;;;10.30;1.00;;;;;;5108007;28;20174;-58
2022/04/19 06:47:05;;;;;;;9.23;5.70;;;10.30;1.00;;;;;;5105269;28;20225;-58
2022/04/19 06:49:30;;;;;;;7.47;4.80;;;10.30;1.00;;;;;;5107164;28;20198;-57
2022/04/19 06:51:56;;;;;;;6.17;4.97;;;9.90;1.00;;;;;;5103324;28;20450;-57
2022/04/19 06:54:21;;;;;;;7.10;5.27;;;10.10;1.00;;;;;;5102269;28;20210;-58
2022/04/19 06:56:47;;;;;;;10.33;7.43;;;10.30;1.00;;;;;;5108948;28;20190;-58
2022/04/19 06:59:13;;;;;;;7.13;6.03;;;10.40;1.00;;;;;;5108076;28;20200;-59
2022/04/19 07:01:40;;;;;;;7.20;6.00;;;10.60;1.00;;;;;;5108144;28;20327;-57
2022/04/19 07:04:09;;;;;;;8.53;5.17;;;11.00;1.00;;;;;;5100331;28;20471;-58
2022/04/19 07:06:35;;;;;;;7.20;5.07;;;11.50;1.00;;;;;;5101130;28;20509;-58
2022/04/19 07:09:01;;;;;;;10.50;5.03;;;11.60;1.00;;;;;;5089363;28;20504;-57
2022/04/19 07:11:27;;;;;;;6.20;4.97;;;11.70;1.00;;;;;;5102313;28;20439;-56
2022/04/19 07:13:53;;;;;;;6.13;4.97;;;11.70;1.00;;;;;;5091275;28;20526;-57
2022/04/19 07:16:18;;;;;;;5.80;4.63;;;11.20;1.00;;;;;;5095823;28;20256;-58
2022/04/19 07:18:44;;;;;;;5.03;4.23;;;11.20;1.00;;;;;;5096237;28;20282;-57
2022/04/19 07:26:37;;;;;;;5.63;5.00;;;11.50;1.00;;;;;;5112835;28;20493;-58
2022/04/19 07:29:04;;;;;;;7.07;4.87;;;11.60;1.00;;;;;;5110319;28;20444;-54
2022/04/19 07:31:31;;;;;;;5.03;4.20;;;11.90;1.00;;;;;;5097672;28;20529;-56
2022/04/19 07:33:57;;;;;;;7.60;5.20;;;11.90;1.00;;;;;;5094203;28;20531;-57
2022/04/19 07:36:22;;;;;;;9.30;6.00;;;12.10;1.00;;;;;;5109681;28;20562;-57
2022/04/19 07:38:48;;;;;;;9.30;5.80;;;12.20;1.00;;;;;;5111467;28;20737;-58
2022/04/19 07:41:13;;;;;;;7.10;5.60;;;12.20;1.00;;;;;;5109216;28;20202;-57
2022/04/19 07:43:43;;;;;;;6.10;5.50;;;12.00;1.00;;;;;;5096903;28;20608;-57
2022/04/19 07:46:10;;;;;;;5.80;4.40;;;;;;;;;;5099017;28;20228;-57
2022/04/19 07:48:36;;;;;;;5.47;4.43;;;12.40;1.00;;;;;;5107684;28;20552;-56
2022/04/19 07:51:02;;;;;;;7.10;5.10;;;13.00;1.00;;;;;;5112585;28;20865;-57
2022/04/19 07:53:27;;;;;;;10.07;5.50;;;13.20;1.00;;;;;;5113449;28;20548;-57
2022/04/19 07:55:55;;;;;;;5.97;5.20;;;12.70;1.00;;;;;;5098816;28;20202;-57
2022/04/19 07:58:21;;;;;;;5.73;4.90;;;12.20;1.00;;;;;;5094462;28;20234;-58
2022/04/19 08:00:46;;;;;;;6.53;5.07;;;12.00;1.00;;;;;;5094681;28;20452;-58
2022/04/19 08:03:12;;;;;;;6.13;4.60;;;12.10;1.00;;;;;;5107064;28;20221;-58
2022/04/19 08:05:37;;;;;;;5.53;4.90;;;12.10;1.00;;;;;;5100530;28;20352;-56
2022/04/19 08:08:03;;;;;;;5.63;4.33;;;12.30;1.00;;;;;;5092653;28;20183;-56
2022/04/19 08:10:28;;;;;;;6.33;4.70;;;12.40;1.00;;;;;;5108137;28;20204;-56
2022/04/19 08:12:54;;;;;;;6.73;4.77;;;12.40;1.00;;;;;;5103899;28;20265;-56
2022/04/19 08:15:19;;;;;;;7.80;4.80;;;12.60;1.00;;;;;;5103116;28;20351;-58
2022/04/19 08:17:45;;;;;;;6.43;4.77;;;12.90;1.00;;;;;;5102940;28;20230;-56
2022/04/19 08:20:13;;;;;;;5.67;5.07;;;12.80;1.00;;;;;;5102716;28;20259;-56
2022/04/19 08:22:40;;;;;;;6.30;4.87;;;13.00;1.00;;;;;;5099726;28;20640;-57
2022/04/19 08:25:06;;;;;;;6.17;4.60;;;13.10;1.00;;;;;;5111619;28;20447;-57
2022/04/19 08:27:32;;;;;;;6.40;5.27;;;13.40;1.00;;;;;;5110458;28;20747;-57
2022/04/19 08:29:57;;;;;;;5.60;4.57;;;13.70;1.00;;;;;;5111383;28;20428;-57
2022/04/19 08:32:23;;;;;;;5.13;4.20;;;13.80;1.00;;;;;;5107087;28;20183;-58
2022/04/19 08:34:48;;;;;;;5.50;5.00;;;14.00;1.00;;;;;;5099702;28;20197;-56
2022/04/19 08:37:14;;;;;;;6.23;4.73;;;13.90;1.00;;;;;;5098707;28;20191;-57
2022/04/19 08:39:40;;;;;;;6.93;4.90;;;13.80;1.00;;;;;;5105581;28;20285;-57
2022/04/19 08:42:06;;;;;;;5.40;4.30;;;13.90;1.00;;;;;;5101948;28;20190;-58
2022/04/19 08:44:37;;;;;;;7.27;5.30;;;14.40;1.00;;;;;;5104888;28;20182;-58
2022/04/19 08:47:06;;;;;;;6.20;4.40;;;14.40;1.00;;;;;;5091953;28;20464;-59
2022/04/19 08:49:39;;;;;;;7.93;4.60;;;13.90;1.00;;;;;;5109366;28;20508;-59
2022/04/19 08:52:05;;;;;;;4.77;4.37;;;13.50;1.00;;;;;;5111818;28;20432;-58
2022/04/19 08:57:29;;;;;;;7.03;4.77;;;13.50;1.00;;;;;;5110606;28;20788;-59
2022/04/19 08:59:55;;;;;;;5.27;4.30;;;;;;;;;;5111809;28;20435;-59
2022/04/19 09:02:23;;;;;;;4.57;3.80;;;14.10;1.00;;;;;;5104023;28;20576;-59
2022/04/19 09:04:50;;;;;;;4.90;4.10;;;14.30;1.00;;;;;;5107213;28;20471;-59
2022/04/19 09:07:16;;;;;;;6.23;3.60;;;14.50;1.00;;;;;;5111885;28;20481;-59
2022/04/19 09:09:43;;;;;;;6.40;4.10;;;14.50;1.00;;;;;;5110818;28;20451;-57
2022/04/19 09:12:10;;;;;;;5.90;3.57;;;14.60;1.00;;;;;;5092625;28;20568;-59
2022/04/19 09:15:03;;;;;;;4.10;3.20;;;14.10;1.00;;;;;;5110700;28;21047;-58
2022/04/19 09:17:42;;;;;;;6.93;3.63;;;13.30;1.00;;;;;;5095540;28;20456;-59
2022/04/19 09:20:11;;;;;;;9.50;3.37;;;13.70;1.00;;;;;;5111040;28;20423;-56
2022/04/19 09:22:37;;;;;;;4.10;3.37;;;13.80;1.00;;;;;;5111805;28;20480;-57
2022/04/19 09:25:19;;;;;;;6.10;4.20;;;14.20;1.00;;;;;;5111610;28;20427;-56
2022/04/19 09:27:45;;;;;;;5.80;3.97;;;14.20;1.00;;;;;;5111658;28;20297;-58
2022/04/19 09:30:20;;;;;;;7.10;4.10;;;14.30;1.00;;;;;;5099587;28;20433;-57
2022/04/19 09:33:18;;;;;;;4.80;3.43;;;14.40;1.00;;;;;;5090910;28;20945;-57
2022/04/19 09:35:58;;;;;;;4.23;3.00;;;14.40;1.00;;;;;;5066378;28;20478;-58
2022/04/19 09:38:39;;;;;;;5.70;3.63;;;14.30;1.00;;;;;;5105911;28;20530;-57
2022/04/19 09:41:06;;;;;;;5.77;3.60;;;;;;;;;;5111284;28;20447;-56
2022/04/19 09:43:33;;;;;;;3.67;3.00;;;13.70;1.00;;;;;;5112028;28;20519;-58
2022/04/19 09:46:02;;;;;;;4.90;4.40;;;14.00;1.00;;;;;;5104452;28;20433;-58
2022/04/19 09:48:34;;;;;;;7.60;3.67;;;14.30;1.00;;;;;;5090841;28;20439;-57
2022/04/19 09:51:08;;;;;;;5.50;4.50;;;14.30;1.00;;;;;;5090614;28;20437;-57
2022/04/19 09:53:41;;;;;;;6.77;3.43;;;14.30;1.00;;;;;;5090924;28;20441;-56
2022/04/19 09:56:14;;;;;;;6.30;3.30;;;13.70;1.00;;;;;;5092525;28;20908;-57
2022/04/19 09:58:41;;;;;;;4.83;3.60;;;13.30;1.00;;;;;;5090822;28;20433;-58
2022/04/19 10:08:10;;;;;;;4.23;3.60;;;13.30;1.00;;;;;;5090404;28;20461;-58
2022/04/19 10:09:23;;;;;;;4.33;2.70;;;13.60;1.00;;;;;;5110862;28;20997;-57
2022/04/19 10:11:50;;;;;;;4.80;3.50;;;13.60;1.00;;;;;;5096148;28;20440;-56
2022/04/19 10:14:18;;;;;;;4.23;3.00;;;14.00;1.00;;;;;;5096899;28;20822;-57
2022/04/19 10:16:44;;;;;;;4.20;3.23;;;14.30;1.00;;;;;;5107423;28;20436;-56
2022/04/19 10:19:10;;;;;;;2.83;2.57;;;13.90;1.00;;;;;;5110472;28;20458;-58
2022/04/19 10:21:41;;;;;;;3.80;3.03;;;13.90;1.00;;;;;;5110911;28;20944;-57
2022/04/19 10:24:12;;;;;;;3.00;2.70;;;13.60;1.00;;;;;;5108866;28;20436;-56
2022/04/19 10:26:49;;;;;;;6.13;2.40;;;13.60;1.00;;;;;;5110937;28;20432;-57
2022/04/19 10:29:22;;;;;;;2.57;2.37;;;14.10;1.00;;;;;;5099640;28;20442;-57
2022/04/19 10:32:04;;;;;;;3.13;2.10;;;14.50;1.00;;;;;;5093241;28;20436;-57
2022/04/19 10:34:35;;;;;;;2.40;1.80;;;14.80;1.00;;;;;;5091260;28;20436;-56
2022/04/19 10:37:27;;;;;;;5.50;2.70;;;14.90;1.00;;;;;;5090382;28;20440;-57
2022/04/19 10:40:04;;;;;;;3.73;2.10;;;15.40;1.00;;;;;;5106909;28;20532;-58
2022/04/19 10:42:32;;;;;;;2.97;2.37;;;15.80;1.00;;;;;;5106230;28;20778;-57
2022/04/19 10:45:14;;;;;;;2.73;2.10;;;15.80;1.00;;;;;;5090213;28;20952;-58
2022/04/19 10:47:51;;;;;;;2.27;2.07;;;15.80;1.00;;;;;;5090457;28;20517;-57
2022/04/19 10:50:33;;;;;;;4.53;2.43;;;15.30;1.00;;;;;;5090414;28;20432;-58
2022/04/19 10:53:04;;;;;;;6.00;2.60;;;15.40;1.00;;;;;;5114299;28;20765;-58
2022/04/19 10:55:34;;;;;;;2.40;2.20;;;15.30;1.00;;;;;;5114498;28;20466;-58
2022/04/19 10:58:18;;;;;;;2.30;2.10;;;14.90;1.00;;;;;;5114835;28;20789;-56
2022/04/19 11:00:48;;;;;;;5.33;2.57;;;14.60;1.00;;;;;;5114676;28;20477;-57
2022/04/19 11:03:40;;;;;;;2.77;1.73;;;14.50;1.00;;;;;;5114629;28;20428;-59
2022/04/19 11:06:31;;;;;;;4.67;2.80;;;14.20;1.00;;;;;;5114609;28;20467;-58
2022/04/19 11:09:20;;;;;;;7.00;2.43;;;14.50;1.00;;;;;;5113201;28;20945;-57
2022/04/19 11:11:46;;;;;;;3.27;2.50;;;14.80;1.00;;;;;;5114281;28;20436;-57
2022/04/19 11:14:28;;;;;;;6.57;2.50;;;15.00;1.00;;;;;;5105076;28;20440;-58
2022/04/19 11:17:23;;;;;;;3.37;3.07;;;15.00;1.00;;;;;;5097057;28;20432;-59
2022/04/19 11:20:05;;;;;;;2.50;2.27;;;14.90;1.00;;;;;;5093718;28;20948;-57
2022/04/19 11:22:51;;;;;;;3.83;1.87;;;14.10;1.00;;;;;;5095586;28;20816;-57
2022/04/19 11:25:39;;;;;;;4.13;2.17;;;14.10;1.00;;;;;;5110395;28;20446;-57
2022/04/19 11:28:08;;;;;;;2.40;2.20;;;14.40;1.00;;;;;;5107871;28;21054;-56
2022/04/19 11:30:34;;;;;;;4.07;2.13;;;14.30;1.00;;;;;;5093299;28;20515;-56
2022/04/19 11:33:00;;;;;;;2.37;2.17;;;;;;;;;;5093617;28;20589;-57
2022/04/19 11:35:29;;;;;;;3.80;2.80;;;14.20;1.00;;;;;;5093512;28;20496;-58
2022/04/19 11:37:54;;;;;;;9.03;2.30;;;14.20;1.00;;;;;;5093475;28;20526;-58
2022/04/19 11:49:03;;;;;;;2.80;1.57;;;;;;;;;;5113841;28;20434;-58
2022/04/19 11:51:30;;;;;;;2.00;1.83;;;14.80;1.00;;;;;;5113759;28;20518;-56
2022/04/19 11:53:55;;;;;;;1.70;1.50;;;14.70;1.00;;;;;;5113371;28;20428;-58
2022/04/19 11:56:21;;;;;;;2.40;1.70;;;;;;;;;;5113617;28;21010;-57
2022/04/19 11:58:52;;;;;;;2.70;1.53;;;14.70;1.00;;;;;;5113393;28;20178;-58
2022/04/19 12:01:18;;;;;;;5.23;1.60;;;14.50;1.00;;;;;;5113349;28;20489;-57
2022/04/19 12:03:44;;;;;;;1.73;1.60;;;14.50;1.00;;;;;;5111670;28;20438;-58
2022/04/19 12:06:11;;;;;;;3.47;1.90;;;14.50;1.00;;;;;;5113015;28;20431;-57
2022/04/19 12:08:45;;;;;;;3.23;2.20;;;14.20;1.00;;;;;;5113473;28;20631;-58
2022/04/19 12:11:14;;;;;;;2.63;2.30;;;14.10;1.00;;;;;;5113108;28;20444;-59
2022/04/19 12:13:42;;;;;;;1.83;1.73;;;13.70;1.00;;;;;;5113163;28;20532;-57
2022/04/19 12:16:29;;;;;;;6.17;1.83;;;13.80;1.00;;;;;;5113200;28;20812;-57
2022/04/19 12:18:57;;;;;;;3.57;2.20;;;11.30;1.00;;;;;;5113095;28;20428;-58
2022/04/19 12:21:40;;;;;;;2.60;1.97;;;14.20;1.00;;;;;;5113065;28;20444;-58
2022/04/19 12:24:18;;;;;;;3.87;2.53;;;14.20;1.00;;;;;;5112957;28;20427;-58
2022/04/19 12:26:44;;;;;;;2.40;2.20;;;14.10;1.00;;;;;;5113053;28;20428;-57
2022/04/19 12:29:14;;;;;;;3.57;1.77;;;13.80;1.00;;;;;;5108219;28;20450;-58
2022/04/19 12:31:41;;;;;;;2.47;1.87;;;13.60;1.00;;;;;;5113006;28;20261;-57
2022/04/19 12:34:09;;;;;;;2.80;2.10;;;13.60;1.00;;;;;;5112713;28;20478;-56
2022/04/19 12:36:48;;;;;;;3.00;2.30;;;13.20;1.00;;;;;;5111513;28;20545;-56
2022/04/19 12:39:15;;;;;;;8.10;2.13;;;13.20;1.00;;;;;;5109746;28;20435;-57
2022/04/19 12:41:43;;;;;;;18.83;2.83;;;;;;;;;;5112860;28;20435;-56
2022/04/19 12:44:09;;;;;;;3.83;1.97;;;13.40;1.00;;;;;;5093593;28;20444;-58
2022/04/19 12:46:47;;;;;;;2.37;1.97;;;13.70;1.00;;;;;;5092178;28;20573;-56
2022/04/19 12:49:24;;;;;;;1.97;1.47;;;13.80;1.00;;;;;;5094492;28;20983;-57
2022/04/19 12:52:07;;;;;;;2.50;2.30;;;13.80;1.00;;;;;;5104905;28;20447;-57
2022/04/19 12:54:38;;;;;;;5.30;1.70;;;14.30;1.00;;;;;;5111110;28;20454;-57
2022/04/19 12:57:10;;;;;;;3.20;2.70;;;14.30;1.00;;;;;;5107255;28;20437;-58
2022/04/19 12:59:35;;;;;;;2.17;1.97;;;14.20;1.00;;;;;;5096024;28;20445;-58
2022/04/19 13:02:02;;;;;;;1.60;1.50;;;14.30;1.00;;;;;;5097440;28;20912;-56
2022/04/19 13:04:29;;;;;;;3.30;1.80;;;13.90;1.00;;;;;;5093724;28;20302;-58
2022/04/19 13:12:26;;;;;;;2.63;2.10;;;;;;;;;;5092746;28;21021;-56
2022/04/19 13:14:53;;;;;;;2.67;1.80;;;13.20;1.00;;;;;;5098606;28;20453;-57
2022/04/19 13:17:20;;;;;;;2.23;2.03;;;13.10;1.00;;;;;;5091924;28;20440;-56
2022/04/19 13:19:46;;;;;;;3.33;1.87;;;13.10;1.00;;;;;;5091592;28;20483;-57
2022/04/19 13:22:12;;;;;;;7.60;2.20;;;13.10;1.00;;;;;;5091707;28;20917;-61
2022/04/19 13:24:39;;;;;;;11.30;4.27;;;13.00;1.00;;;;;;5110445;28;20694;-57
2022/04/19 13:27:06;;;;;;;5.90;2.73;;;12.80;1.00;;;;;;5091229;28;20532;-56
2022/04/19 13:29:33;;;;;;;2.73;1.80;;;12.70;1.00;;;;;;5095397;28;20447;-57
2022/04/19 13:31:59;;;;;;;2.07;1.87;;;12.80;1.00;;;;;;5106302;28;20485;-59
2022/04/19 13:34:25;;;;;;;2.13;1.93;;;13.00;1.00;;;;;;5110788;28;20439;-58
2022/04/19 13:36:51;;;;;;;1.97;1.80;;;13.00;1.00;;;;;;5105539;28;20248;-58
2022/04/19 13:39:17;;;;;;;1.57;1.37;;;13.20;1.00;;;;;;5095262;28;20763;-57
2022/04/19 13:41:42;;;;;;;4.53;2.20;;;13.20;1.00;;;;;;5096438;28;20441;-55
2022/04/19 13:44:11;;;;;;;2.93;2.50;;;13.50;1.00;;;;;;5092642;28;20532;-60
2022/04/19 13:46:38;;;;;;;3.47;1.83;;;13.80;1.00;;;;;;5090969;28;20187;-56
2022/04/19 13:49:04;;;;;;;3.10;1.87;;;11.10;1.00;;;;;;5091293;28;20955;-57
2022/04/19 13:51:30;;;;;;;3.33;1.93;;;14.00;1.00;;;;;;5093114;28;20478;-56
2022/04/19 13:53:56;;;;;;;3.33;1.87;;;13.90;1.00;;;;;;5090701;28;20556;-56